QTR104 KSEA-KLAX
Flight info
| Callsign | QTR104 |
|---|---|
| Flight time | N/A |
| Altitude | 31000 |
| Route | KSEA/34R N0485F410 OZWLD1 OZWLD DCT KPOWW DCT SEA152033 DCT JINMO Q7 JAGWA DCT BURGL IRNMN2 KLAX/25L |
| Aircraft | A350/H-A359/L |
Departure
| Time | N/A |
|---|---|
| Airport | Seattle–Tacoma International Airport (KSEA) |
Arrival
| Time | 2026-04-20 22:46 |
|---|---|
| Airport | Los Angeles International Airport (KLAX) |
| Time | Latitude | Longitude | Altitude | Speed | Heading |
|---|---|---|---|---|---|
| 2026-04-20 22:15 | 35.72600 | -120.12649 | 30999 ft | 527 kts | 173° |
| 2026-04-20 22:15 | 35.68138 | -120.11150 | 30999 ft | 532 kts | 169° |
| 2026-04-20 22:15 | 35.64710 | -120.09331 | 31002 ft | 544 kts | 158° |
| 2026-04-20 22:16 | 35.61428 | -120.06960 | 31003 ft | 548 kts | 155° |
| 2026-04-20 22:16 | 35.54937 | -120.02016 | 31003 ft | 549 kts | 155° |
| 2026-04-20 22:17 | 35.48445 | -119.97106 | 31001 ft | 548 kts | 155° |
| 2026-04-20 22:17 | 35.41933 | -119.92208 | 30982 ft | 548 kts | 155° |
| 2026-04-20 22:18 | 35.35430 | -119.87330 | 30976 ft | 547 kts | 155° |
| 2026-04-20 22:18 | 35.28946 | -119.82409 | 30842 ft | 551 kts | 152° |
| 2026-04-20 22:18 | 35.25896 | -119.79678 | 30706 ft | 547 kts | 149° |
| 2026-04-20 22:19 | 35.22895 | -119.76859 | 30268 ft | 539 kts | 149° |
| 2026-04-20 22:19 | 35.19939 | -119.74080 | 29772 ft | 534 kts | 149° |
| 2026-04-20 22:19 | 35.17006 | -119.71332 | 29271 ft | 529 kts | 149° |
| 2026-04-20 22:19 | 35.14093 | -119.68610 | 28767 ft | 524 kts | 149° |
| 2026-04-20 22:20 | 35.11206 | -119.65917 | 28283 ft | 520 kts | 149° |
| 2026-04-20 22:20 | 35.08340 | -119.63247 | 27772 ft | 516 kts | 148° |
| 2026-04-20 22:20 | 35.05501 | -119.60606 | 27270 ft | 512 kts | 148° |
| 2026-04-20 22:20 | 35.02672 | -119.57976 | 26768 ft | 507 kts | 148° |
| 2026-04-20 22:21 | 34.99877 | -119.55380 | 26286 ft | 503 kts | 148° |
| 2026-04-20 22:21 | 34.97117 | -119.52818 | 26035 ft | 493 kts | 148° |
| 2026-04-20 22:21 | 34.94420 | -119.50311 | 25982 ft | 480 kts | 148° |
| 2026-04-20 22:21 | 34.91782 | -119.47866 | 25702 ft | 471 kts | 149° |
| 2026-04-20 22:22 | 34.89223 | -119.45524 | 25206 ft | 450 kts | 150° |
| 2026-04-20 22:22 | 34.86762 | -119.43325 | 24713 ft | 440 kts | 150° |
| 2026-04-20 22:22 | 34.84279 | -119.41117 | 24203 ft | 434 kts | 150° |
| 2026-04-20 22:22 | 34.81885 | -119.38988 | 23724 ft | 430 kts | 150° |
| 2026-04-20 22:23 | 34.79483 | -119.36848 | 23213 ft | 426 kts | 149° |
| 2026-04-20 22:23 | 34.77102 | -119.34726 | 22715 ft | 422 kts | 149° |
| 2026-04-20 22:23 | 34.74746 | -119.32626 | 22203 ft | 418 kts | 149° |
| 2026-04-20 22:23 | 34.72400 | -119.30560 | 21719 ft | 414 kts | 150° |
| 2026-04-20 22:24 | 34.70062 | -119.28522 | 21211 ft | 410 kts | 150° |
| 2026-04-20 22:24 | 34.67750 | -119.26507 | 20707 ft | 407 kts | 149° |
| 2026-04-20 22:24 | 34.66236 | -119.25188 | 20377 ft | 404 kts | 149° |
| 2026-04-20 22:24 | 34.63212 | -119.22566 | 19744 ft | 399 kts | 149° |
| 2026-04-20 22:25 | 34.60957 | -119.20623 | 19276 ft | 396 kts | 149° |
| 2026-04-20 22:25 | 34.59470 | -119.19342 | 19074 ft | 395 kts | 149° |
| 2026-04-20 22:25 | 34.56704 | -119.16963 | 19007 ft | 400 kts | 150° |
| 2026-04-20 22:25 | 34.54410 | -119.15006 | 18985 ft | 400 kts | 149° |
| 2026-04-20 22:26 | 34.52931 | -119.13690 | 18836 ft | 395 kts | 148° |
| 2026-04-20 22:26 | 34.50737 | -119.11722 | 18367 ft | 390 kts | 148° |
| 2026-04-20 22:26 | 34.48559 | -119.09776 | 17876 ft | 387 kts | 148° |
| 2026-04-20 22:27 | 34.44234 | -119.05937 | 16860 ft | 382 kts | 149° |
| 2026-04-20 22:27 | 34.42085 | -119.04055 | 16378 ft | 379 kts | 149° |
| 2026-04-20 22:27 | 34.39970 | -119.02225 | 15867 ft | 377 kts | 149° |
| 2026-04-20 22:27 | 34.37844 | -119.00388 | 15367 ft | 374 kts | 149° |
| 2026-04-20 22:28 | 34.35733 | -118.98563 | 14852 ft | 371 kts | 149° |
| 2026-04-20 22:28 | 34.33639 | -118.96755 | 14376 ft | 368 kts | 150° |
| 2026-04-20 22:28 | 34.31581 | -118.94919 | 13851 ft | 366 kts | 148° |
| 2026-04-20 22:28 | 34.29558 | -118.93062 | 13236 ft | 364 kts | 148° |
| 2026-04-20 22:29 | 34.27554 | -118.91226 | 12610 ft | 357 kts | 148° |
| 2026-04-20 22:29 | 34.25628 | -118.89465 | 12150 ft | 337 kts | 148° |
| 2026-04-20 22:29 | 34.23812 | -118.87803 | 12004 ft | 321 kts | 148° |
| 2026-04-20 22:29 | 34.22035 | -118.86167 | 11998 ft | 321 kts | 148° |
| 2026-04-20 22:30 | 34.20259 | -118.84534 | 11999 ft | 321 kts | 148° |
| 2026-04-20 22:30 | 34.18485 | -118.82904 | 12002 ft | 320 kts | 149° |
| 2026-04-20 22:30 | 34.16740 | -118.81300 | 11933 ft | 312 kts | 149° |
| 2026-04-20 22:30 | 34.15050 | -118.79676 | 11562 ft | 310 kts | 144° |
| 2026-04-20 22:31 | 34.13483 | -118.77941 | 11128 ft | 309 kts | 142° |
| 2026-04-20 22:31 | 34.11916 | -118.76177 | 10668 ft | 307 kts | 142° |
| 2026-04-20 22:31 | 34.10347 | -118.74430 | 10224 ft | 305 kts | 143° |
| 2026-04-20 22:31 | 34.08785 | -118.72712 | 9771 ft | 304 kts | 143° |
| 2026-04-20 22:32 | 34.07225 | -118.71006 | 9314 ft | 301 kts | 143° |
| 2026-04-20 22:32 | 34.05676 | -118.69319 | 9038 ft | 300 kts | 144° |
| 2026-04-20 22:32 | 34.04142 | -118.67609 | 8999 ft | 302 kts | 140° |
| 2026-04-20 22:32 | 34.02970 | -118.65483 | 8995 ft | 311 kts | 112° |
| 2026-04-20 22:33 | 34.02536 | -118.62928 | 8999 ft | 312 kts | 97° |
| 2026-04-20 22:33 | 34.02314 | -118.60318 | 9000 ft | 313 kts | 96° |
| 2026-04-20 22:33 | 34.02100 | -118.57711 | 9000 ft | 313 kts | 96° |
| 2026-04-20 22:33 | 34.01903 | -118.55094 | 8937 ft | 312 kts | 96° |
| 2026-04-20 22:34 | 34.01699 | -118.52575 | 8531 ft | 300 kts | 97° |
| 2026-04-20 22:34 | 34.01458 | -118.50083 | 7835 ft | 300 kts | 98° |
| 2026-04-20 22:34 | 34.01206 | -118.47544 | 7094 ft | 302 kts | 98° |
| 2026-04-20 22:34 | 34.01136 | -118.45065 | 6426 ft | 299 kts | 82° |
| 2026-04-20 22:35 | 34.01492 | -118.42655 | 6072 ft | 285 kts | 76° |
| 2026-04-20 22:35 | 34.01898 | -118.40399 | 5991 ft | 268 kts | 76° |
| 2026-04-20 22:35 | 34.02291 | -118.38204 | 5993 ft | 268 kts | 76° |
| 2026-04-20 22:35 | 34.02680 | -118.36004 | 5995 ft | 268 kts | 76° |
| 2026-04-20 22:36 | 34.03016 | -118.33791 | 5998 ft | 269 kts | 81° |
| 2026-04-20 22:36 | 34.03229 | -118.31555 | 5996 ft | 269 kts | 83° |
| 2026-04-20 22:36 | 34.03426 | -118.29302 | 6001 ft | 269 kts | 83° |
| 2026-04-20 22:36 | 34.03620 | -118.27051 | 6001 ft | 270 kts | 83° |
| 2026-04-20 22:37 | 34.03813 | -118.24800 | 6000 ft | 269 kts | 83° |
| 2026-04-20 22:37 | 34.04005 | -118.22564 | 5998 ft | 269 kts | 83° |
| 2026-04-20 22:37 | 34.04196 | -118.20312 | 5999 ft | 269 kts | 83° |
| 2026-04-20 22:37 | 34.04385 | -118.18086 | 5998 ft | 270 kts | 83° |
| 2026-04-20 22:38 | 34.04566 | -118.15835 | 5999 ft | 270 kts | 85° |
| 2026-04-20 22:38 | 34.04333 | -118.13602 | 5997 ft | 268 kts | 114° |
| 2026-04-20 22:38 | 34.03364 | -118.11761 | 5762 ft | 255 kts | 143° |
| 2026-04-20 22:38 | 34.01921 | -118.10640 | 5188 ft | 243 kts | 166° |
| 2026-04-20 22:39 | 34.00332 | -118.09931 | 4463 ft | 245 kts | 171° |
| 2026-04-20 22:39 | 33.98728 | -118.09657 | 3941 ft | 221 kts | 197° |
| 2026-04-20 22:39 | 33.97472 | -118.10405 | 3443 ft | 192 kts | 236° |
| 2026-04-20 22:39 | 33.97107 | -118.11828 | 3093 ft | 179 kts | 278° |
| 2026-04-20 22:40 | 33.97357 | -118.13309 | 3009 ft | 182 kts | 276° |
| 2026-04-20 22:40 | 33.97492 | -118.14819 | 2994 ft | 181 kts | 273° |
| 2026-04-20 22:40 | 33.97535 | -118.16332 | 2996 ft | 180 kts | 269° |
| 2026-04-20 22:40 | 33.97469 | -118.17820 | 2998 ft | 180 kts | 265° |
| 2026-04-20 22:41 | 33.97324 | -118.19384 | 3035 ft | 192 kts | 263° |
| 2026-04-20 22:41 | 33.97159 | -118.20927 | 2993 ft | 179 kts | 264° |
| 2026-04-20 22:41 | 33.97015 | -118.22310 | 3006 ft | 154 kts | 264° |
| 2026-04-20 22:41 | 33.96900 | -118.23556 | 2940 ft | 147 kts | 265° |
| 2026-04-20 22:42 | 33.96789 | -118.24729 | 2680 ft | 135 kts | 264° |
| 2026-04-20 22:42 | 33.96670 | -118.25884 | 2482 ft | 148 kts | 263° |
| 2026-04-20 22:42 | 33.96537 | -118.27167 | 2263 ft | 158 kts | 263° |
| 2026-04-20 22:42 | 33.96403 | -118.28484 | 2046 ft | 156 kts | 263° |
| 2026-04-20 22:43 | 33.96276 | -118.29735 | 1833 ft | 145 kts | 263° |
| 2026-04-20 22:43 | 33.96158 | -118.30897 | 1644 ft | 134 kts | 263° |
| 2026-04-20 22:43 | 33.96047 | -118.31985 | 1478 ft | 129 kts | 263° |
| 2026-04-20 22:43 | 33.95937 | -118.33060 | 1311 ft | 129 kts | 263° |
| 2026-04-20 22:44 | 33.95828 | -118.34122 | 1143 ft | 130 kts | 263° |
| 2026-04-20 22:44 | 33.95719 | -118.35198 | 965 ft | 130 kts | 263° |
| 2026-04-20 22:44 | 33.95608 | -118.36277 | 797 ft | 130 kts | 263° |
| 2026-04-20 22:44 | 33.95498 | -118.37359 | 624 ft | 130 kts | 263° |
| 2026-04-20 22:45 | 33.95387 | -118.38457 | 448 ft | 131 kts | 263° |
| 2026-04-20 22:45 | 33.95280 | -118.39527 | 275 ft | 130 kts | 263° |
| 2026-04-20 22:45 | 33.95167 | -118.40616 | 150 ft | 131 kts | 263° |
| 2026-04-20 22:45 | 33.95070 | -118.41560 | 132 ft | 73 kts | 263° |
| 2026-04-20 22:46 | 33.94944 | -118.41918 | 129 ft | 21 kts | 232° |
| 2026-04-20 22:46 | 33.94893 | -118.42000 | 128 ft | 13 kts | 232° |
| 2026-04-20 22:46 | 33.94829 | -118.42100 | 128 ft | 16 kts | 232° |
| 2026-04-20 22:46 | 33.94760 | -118.42206 | 125 ft | 9 kts | 229° |
| 2026-04-20 22:47 | 33.94715 | -118.42222 | 130 ft | 7 kts | 170° |
| 2026-04-20 22:47 | 33.94699 | -118.42189 | 123 ft | 5 kts | 101° |
| 2026-04-20 22:47 | 33.94699 | -118.42128 | 132 ft | 10 kts | 87° |
| 2026-04-20 22:47 | 33.94705 | -118.42035 | 132 ft | 13 kts | 84° |
| 2026-04-20 22:48 | 33.94716 | -118.41919 | 130 ft | 15 kts | 83° |
| 2026-04-20 22:48 | 33.94731 | -118.41779 | 124 ft | 18 kts | 82° |
| 2026-04-20 22:48 | 33.94745 | -118.41651 | 132 ft | 14 kts | 83° |
| 2026-04-20 22:48 | 33.94758 | -118.41524 | 129 ft | 15 kts | 83° |
| 2026-04-20 22:49 | 33.94777 | -118.41408 | 128 ft | 13 kts | 75° |
| 2026-04-20 22:49 | 33.94774 | -118.41323 | 123 ft | 10 kts | 126° |
| 2026-04-20 22:49 | 33.94704 | -118.41287 | 128 ft | 13 kts | 169° |
| 2026-04-20 22:49 | 33.94632 | -118.41271 | 127 ft | 8 kts | 171° |
| 2026-04-20 22:50 | 33.94501 | -118.41258 | 130 ft | 16 kts | 178° |
| 2026-04-20 22:50 | 33.94404 | -118.41237 | 129 ft | 9 kts | 137° |
| 2026-04-20 22:50 | 33.94398 | -118.41171 | 123 ft | 9 kts | 80° |
| 2026-04-20 22:50 | 33.94401 | -118.41147 | 124 ft | 0 kts | 81° |